createdAt,value
2023-03-19T00:01:41.765Z,7.4
2023-03-19T00:11:41.855Z,7.3
2023-03-19T00:31:42.915Z,7.8
2023-03-19T00:41:43.627Z,7.8
2023-03-19T00:51:44.728Z,8
2023-03-19T01:01:44.882Z,7.7
2023-03-19T01:11:45.740Z,7.6
2023-03-19T02:01:49.306Z,7.5
2023-03-19T03:41:55.738Z,7.6
2023-03-19T04:01:56.911Z,7.8
2023-03-19T04:21:58.010Z,7.8
2023-03-19T04:31:58.169Z,7.8
2023-03-19T04:41:58.675Z,7.8
2023-03-19T04:51:58.888Z,7.9
2023-03-19T05:01:59.195Z,7.7
2023-03-19T05:12:00.207Z,7.7
2023-03-19T05:22:00.560Z,7.9
2023-03-19T05:32:01.125Z,8.1
2023-03-19T05:42:01.245Z,8.3
2023-03-19T05:52:01.707Z,8.5
2023-03-19T06:02:02.529Z,8.8
2023-03-19T06:12:02.950Z,9.5
2023-03-19T07:02:05.672Z,9.8
2023-03-19T07:12:06.459Z,9.9
2023-03-19T07:22:07.300Z,10
2023-03-19T07:32:07.994Z,10.2
2023-03-19T08:32:11.862Z,10.8
2023-03-19T08:42:12.468Z,10.8
2023-03-19T09:12:14.434Z,11.1
2023-03-19T09:22:14.877Z,11.3
2023-03-19T09:52:16.428Z,11.7
2023-03-19T10:02:17.055Z,11.9
2023-03-19T10:22:18.190Z,12.4
2023-03-19T10:42:19.859Z,12.7
2023-03-19T11:12:20.739Z,12.5
2023-03-19T11:32:22.570Z,11.8
2023-03-19T11:52:23.054Z,11.7
2023-03-19T12:02:23.687Z,11.8
2023-03-19T12:12:26.550Z,11.8
2023-03-19T12:22:25.092Z,11.7
2023-03-19T12:32:25.281Z,12
2023-03-19T12:42:25.740Z,12.2
2023-03-19T12:52:26.038Z,12.7
2023-03-19T13:12:27.221Z,13.4
2023-03-19T13:22:27.879Z,13.5
2023-03-19T13:32:28.196Z,13.6
2023-03-19T13:42:28.662Z,13.6
2023-03-19T13:52:28.997Z,13.5
2023-03-19T14:22:30.330Z,13.4
2023-03-19T14:32:30.947Z,13.5
2023-03-19T14:42:31.829Z,13.7
2023-03-19T14:52:32.280Z,14.1
2023-03-19T15:02:32.966Z,14.1
2023-03-19T15:12:33.716Z,14.4
2023-03-19T15:22:34.425Z,14.5
2023-03-19T15:52:35.320Z,14.1
2023-03-19T16:12:35.939Z,14.2
2023-03-19T16:22:36.990Z,14.3
2023-03-19T16:32:38.112Z,14.5
2023-03-19T16:42:38.840Z,14.9
2023-03-19T16:52:39.391Z,14.2
2023-03-19T17:12:40.667Z,13.2
2023-03-19T17:22:41.583Z,12.8
2023-03-19T17:32:41.837Z,12.4
2023-03-19T17:52:45.584Z,11.9
2023-03-19T18:02:44.349Z,11.7
2023-03-19T18:12:44.748Z,11.6
2023-03-19T18:32:46.435Z,11.4
2023-03-19T18:42:47.287Z,11.2
2023-03-19T19:02:47.756Z,10.6
2023-03-19T19:32:49.896Z,10.3
2023-03-19T19:42:50.759Z,10.4
2023-03-19T19:52:51.240Z,10.3
2023-03-19T20:02:51.578Z,10
2023-03-19T20:32:53.465Z,9.7
2023-03-19T20:52:54.629Z,9.9
2023-03-19T21:02:55.203Z,10.1
2023-03-19T21:12:55.328Z,10
2023-03-19T21:22:56.114Z,9.9
2023-03-19T21:32:57.146Z,10
2023-03-19T21:42:58.088Z,10
2023-03-19T22:02:58.697Z,9
2023-03-19T22:12:58.939Z,9
2023-03-19T22:22:59.353Z,8.9
2023-03-19T22:32:59.864Z,9
2023-03-19T22:43:00.202Z,9.3
2023-03-19T22:53:01.225Z,9.4
2023-03-19T23:03:01.560Z,9.4
2023-03-19T23:13:02.063Z,9.3
2023-03-19T23:23:02.407Z,9.3
2023-03-19T23:33:03.585Z,9.2
2023-03-19T23:53:05.322Z,8.9
